Aérodrome :
LOGIN :

S'inscrire | Disclaimer

   EN    FR    IT 

 










Légende :    VFR   VFR Marginal   IFR   IFR Intensif   IFR Très Intensif
Visi : 
Plafond : 
>= 8 km
>= 3000ft
5 à 8 km
1000 à 3000 ft
1500m à 5 km
500 à 1000 ft
800 à 1500m
200 à 500 ft
< 800m
< 200 ft
Symboles :   Orages  Brouillard  Fortes neiges  Fortes précipitations  Vent > 20 kt
SIGMETs :   Divers  Orages  Givrage  Turbulence  Onde Orograph.  Cendres Volcan.







- Altitude de l'aérodrome : 580 ft
- Voir les cartes d'approche


LFOA - Avord

DERNIER METAR :
  • 281000Z AUTO 21010KT 9999 -RA FEW032/// SCT042/// BKN049/// ///TCU 18/16 Q1001 TEMPO 23015G25KT 4000 SHRA BKN010 BKN025TCU

METARs EXPIRÉS :
  • 280930Z AUTO 22007KT 190V250 9999 SCT023/// SCT030/// BKN040/// ///CB 18/16 Q1001 TEMPO 23015G25KT 4000 SHRA BKN010 BKN025TCU
  • 280900Z AUTO 25008KT 190V290 9999 BKN024/// BKN031/// BKN039/// ///CB 19/14 Q1001 TEMPO 23015G25KT 4000 SHRA BKN010 BKN025TCU
  • 280830Z AUTO 22009KT 180V250 9999 BKN025 BKN039 BKN049 20/14 Q1001 TEMPO 23015G25KT 4000 SHRA BKN010 BKN025TCU
  • 280800Z AUTO 20010KT 170V230 9999 BKN026 BKN032 BKN039 20/14 Q1001 TEMPO 23015G25KT 4000 SHRA BKN025TCU
  • 280730Z AUTO 22010KT 190V250 9999 BKN022 BKN031 BKN044 19/15 Q1002 TEMPO 23015G25KT 4000 SHRA BKN025TCU

TAF TAF LFOA
Valide du 28 à 09h jusqu'au 29 à 09h UTC


280800Z 2809/2909 22010KT 9999 SCT020 BKN025
TEMPO 2809/2818 23015G25KT 4000 SHRA BKN010 BKN025TCU
PROB30
TEMPO 2812/2818 25020G30KT 2500 -TSRA SCT015 BKN030CB
TEMPO 2901/2907 4000 SHRA BKN010 BKN015TCU
Pas de NOTAMs connus pour ce terrain.



MET'MAP, la Météo Aéronautique d'un coup d'oeil ! - Copyright ORBIFLY Décembre 2007 - Disclaimer

ORBIFLY MET'MAP TEAM :

Programmation & Développement : Alexandra Zaïnal
Conception & Développement : Baudouin d'Aumeries
Co-Programmation & Développement : Marc-Olivier Méhu
Soutien technique & logistique : Manuel Goepfert

Contact : metmap@orbifly.com




SOURCES & CREDITS :

   NOAA